Navarre, FL

3:38 AM CDT on April 23, 2017 (GMT -0500)
Navarre Second Addition | | Change Station

Elev 33 ft 30.43 °N, 86.88 °W | Updated 7 minutes ago

Mostly Cloudy
Mostly Cloudy
69.1 °F
Feels Like 69.1 °F
N
0.0
Wind Variable Wind from SE
Gusts 4.0 mph

Today
High -- | Low -- °F
--% Chance of Precip.
Yesterday
High -- | Low -- °F
Precip. -- in
Pressure 29.85 in
Visibility 9.0 miles
Clouds Few 1600 ft
Mostly Cloudy 8000 ft
Dew Point 64 °F
Humidity 84%
Rainfall 0.03 in
Snow Depth Not available.
6:11 AM 7:20 PM
Waning Crescent, 13% visible
SPECI KHRT 230810Z 00000KT 9SM R18/5500FT -SHRA FEW016 BKN080 22/16 A2984 RMK AO2A SLP106
Pressure 29.85 in
Visibility 9.0 miles
Clouds Few 1600 ft
Mostly Cloudy 8000 ft
Dew Point 64 °F
Humidity 84%
Rainfall 0.03 in
Snow Depth Not available.
6:11 AM 7:20 PM
Waning Crescent, 13% visible
SPECI KHRT 230810Z 00000KT 9SM R18/5500FT -SHRA FEW016 BKN080 22/16 A2984 RMK AO2A SLP106

Get Severe Weather Alerts

Thanks for signing up!

Be on the lookout for a verification email in your inbox.

You'll start receiving the daily forecast at 8 AM.

×

10-Day Weather Forecast

Almanac

Astronomy

Apr. 23, 2017 Rise Set
Actual Time
Civil Twilight
Nautical Twilight
Astronomical Twilight
Moon
Length of Visible Light
Length of Day
Tomorrow will be .
, % of the Moon is Illuminated

Today's Extremes

State Highs State Lows

Community

WunderPhotos

WunderBlog® & News

Nearby

Air Quality

  Air Quality AQ Index Pollutant
Not available.

Snow Depth

Station Depth Elevation

Earthquake Activity

City Distance Mag. Time & Date
Minimum magnitude displayed is 2.5.

Coastal Water Temperatures

Place Temperature

Stations

Nearby Weather Stations

Station Location Temp. Windchill Dew Point Humidity Wind Precip. Elev Updated Type
                   

Watches & Warnings

There are currently no watches in effect.